createdAt,value
2022-11-12T00:00:35.532Z,99562.34
2022-11-12T00:05:56.647Z,99571.44
2022-11-12T00:11:17.739Z,99569.78
2022-11-12T00:16:38.924Z,99566.66
2022-11-12T00:21:59.925Z,99568.22
2022-11-12T00:27:21.111Z,99566.19
2022-11-12T00:32:42.019Z,99566.88
2022-11-12T00:38:03.086Z,99572.56
2022-11-12T00:43:25.442Z,99569.28
2022-11-12T00:48:46.196Z,99576.56
2022-11-12T00:54:07.658Z,99579.06
2022-11-12T00:59:28.735Z,99570.84
2022-11-12T01:04:49.972Z,99568.31
2022-11-12T01:10:11.889Z,99566.91
2022-11-12T01:15:32.871Z,99566.16
2022-11-12T01:20:55.521Z,99564.59
2022-11-12T01:26:20.777Z,99573.66
2022-11-12T01:31:42.031Z,99570.28
2022-11-12T01:37:03.062Z,99554.72
2022-11-12T01:42:29.534Z,99550.53
2022-11-12T01:47:52.210Z,99550.81
2022-11-12T01:53:14.256Z,99537.00
2022-11-12T01:58:37.516Z,99534.91
2022-11-12T02:03:58.730Z,99534.41
2022-11-12T02:09:20.041Z,99533.28
2022-11-12T02:14:40.965Z,99519.09
2022-11-12T02:20:02.295Z,99525.63
2022-11-12T02:25:25.004Z,99512.63
2022-11-12T02:30:48.834Z,99520.34
2022-11-12T02:36:10.053Z,99511.41
2022-11-12T02:41:31.246Z,99508.31
2022-11-12T02:46:52.223Z,99507.22
2022-11-12T02:52:13.382Z,99513.47
2022-11-12T02:57:35.350Z,99513.88
2022-11-12T03:02:59.401Z,99508.84
2022-11-12T03:08:20.238Z,99520.22
2022-11-12T03:13:41.605Z,99528.25
2022-11-12T03:19:02.882Z,99522.25
2022-11-12T03:24:24.009Z,99526.97
2022-11-12T03:29:45.062Z,99522.78
2022-11-12T03:35:06.503Z,99519.81
2022-11-12T03:40:28.358Z,99511.00
2022-11-12T03:45:49.276Z,99512.75
2022-11-12T03:51:12.286Z,99514.53
2022-11-12T03:56:32.992Z,99523.72
2022-11-12T04:01:54.219Z,99522.00
2022-11-12T04:07:33.831Z,99525.47
2022-11-12T04:13:13.059Z,99526.13
2022-11-12T04:18:52.809Z,99526.41
2022-11-12T04:24:34.006Z,99528.53
2022-11-12T04:30:13.889Z,99526.75
2022-11-12T04:35:35.049Z,99518.66
2022-11-12T04:41:14.417Z,99511.25
2022-11-12T04:46:35.400Z,99504.59
2022-11-12T04:52:05.512Z,99502.69
2022-11-12T04:57:27.108Z,99502.25
2022-11-12T05:02:50.526Z,99518.78
2022-11-12T05:08:11.752Z,99528.09
2022-11-12T05:13:32.783Z,99514.91
2022-11-12T05:18:54.039Z,99522.69
2022-11-12T05:24:33.966Z,99524.56
2022-11-12T05:29:55.889Z,99520.00
2022-11-12T05:35:16.997Z,99526.81
2022-11-12T05:40:37.739Z,99531.41
2022-11-12T05:45:59.000Z,99526.97
2022-11-12T05:51:20.078Z,99531.25
2022-11-12T05:56:41.328Z,99535.88
2022-11-12T06:02:02.140Z,99540.13
2022-11-12T06:07:23.347Z,99546.31
2022-11-12T06:12:44.102Z,99549.09
2022-11-12T06:18:05.077Z,99552.69
2022-11-12T06:23:25.903Z,99565.47
2022-11-12T06:28:48.050Z,99559.59
2022-11-12T06:34:08.948Z,99557.84
2022-11-12T06:39:29.672Z,99551.84
2022-11-12T06:44:50.820Z,99563.88
2022-11-12T06:50:11.852Z,99555.66
2022-11-12T06:55:33.163Z,99548.50
2022-11-12T07:00:53.917Z,99545.56
2022-11-12T07:06:19.287Z,99546.09
2022-11-12T07:11:40.238Z,99546.25
2022-11-12T07:17:01.470Z,99551.22
2022-11-12T07:22:22.264Z,99536.06
2022-11-12T07:27:42.967Z,99546.44
2022-11-12T07:33:03.986Z,99540.84
2022-11-12T07:38:25.547Z,99526.13
2022-11-12T07:43:48.464Z,99538.84
2022-11-12T07:49:09.582Z,99533.03
2022-11-12T07:54:30.553Z,99535.75
2022-11-12T07:59:51.419Z,99536.19
2022-11-12T08:05:16.512Z,99541.06
2022-11-12T08:10:40.933Z,99544.66
2022-11-12T08:16:02.263Z,99543.00
2022-11-12T08:21:23.236Z,99541.06
2022-11-12T08:26:44.333Z,99549.19
2022-11-12T08:32:05.653Z,99543.47
2022-11-12T08:37:26.931Z,99540.59
2022-11-12T08:42:48.245Z,99533.91
2022-11-12T08:48:13.840Z,99545.41
2022-11-12T08:53:34.727Z,99542.25
2022-11-12T08:58:56.037Z,99540.09
2022-11-12T09:04:17.278Z,99541.84
2022-11-12T09:09:38.273Z,99538.13
2022-11-12T09:15:09.622Z,99535.94
2022-11-12T09:20:41.189Z,99522.78
2022-11-12T09:26:02.709Z,99523.72
2022-11-12T09:31:25.764Z,99517.31
2022-11-12T09:36:46.607Z,99508.47
2022-11-12T09:42:16.016Z,99513.19
2022-11-12T09:47:45.299Z,99499.66
2022-11-12T10:42:57.347Z,99476.50
2022-11-12T10:48:31.195Z,99483.84
2022-11-12T10:53:55.107Z,99477.88
2022-11-12T10:59:26.104Z,99478.56
2022-11-12T11:04:51.109Z,99478.78
2022-11-12T11:10:28.017Z,99471.84
2022-11-12T11:16:00.085Z,99462.72
2022-11-12T11:21:47.971Z,99463.34
2022-11-12T11:27:19.888Z,99460.16
2022-11-12T11:32:52.355Z,99455.84
2022-11-12T11:38:25.566Z,99457.59
2022-11-12T11:44:14.792Z,99455.78
2022-11-12T11:50:01.905Z,99446.84
2022-11-12T11:55:48.148Z,99445.16
2022-11-12T12:01:20.619Z,99447.91
2022-11-12T12:07:19.483Z,99423.81
2022-11-12T12:13:05.451Z,99422.47
2022-11-12T12:18:37.348Z,99420.28
2022-11-12T12:24:18.032Z,99415.72
2022-11-12T12:29:49.252Z,99410.00
2022-11-12T12:35:38.738Z,99420.13
2022-11-12T12:41:29.369Z,99414.59
2022-11-12T12:46:57.451Z,99408.97
2022-11-12T12:52:18.688Z,99402.13
2022-11-12T12:57:40.803Z,99393.44
2022-11-12T13:03:01.765Z,99388.94
2022-11-12T13:08:27.225Z,99389.13
2022-11-12T13:13:48.549Z,99376.75
2022-11-12T13:19:09.735Z,99377.13
2022-11-12T13:25:05.119Z,99364.34
2022-11-12T13:30:25.860Z,99362.91
2022-11-12T13:35:46.898Z,99361.91
2022-11-12T13:41:43.795Z,99370.94
2022-11-12T13:47:05.254Z,99363.91
2022-11-12T13:52:26.935Z,99363.91
2022-11-12T13:57:52.731Z,99369.03
2022-11-12T14:03:18.937Z,99360.25
2022-11-12T14:09:07.657Z,99353.28
2022-11-12T14:15:04.349Z,99350.19
2022-11-12T14:20:30.550Z,99351.00
2022-11-12T14:25:53.785Z,99363.59
2022-11-12T14:31:15.817Z,99335.16
2022-11-12T14:36:38.764Z,99333.63
2022-11-12T14:42:00.913Z,99336.53
2022-11-12T14:47:23.178Z,99332.03
2022-11-12T14:52:48.504Z,99328.66
2022-11-12T14:58:17.579Z,99330.03
2022-11-12T15:03:38.494Z,99318.16
2022-11-12T15:09:00.152Z,99327.59
2022-11-12T15:14:24.808Z,99323.69
2022-11-12T15:19:45.817Z,99307.84
2022-11-12T15:25:23.372Z,99308.84
2022-11-12T15:31:08.016Z,99308.19
2022-11-12T15:36:32.260Z,99301.31
2022-11-12T15:42:05.939Z,99303.78
2022-11-12T15:47:26.740Z,99296.88
2022-11-12T15:52:47.964Z,99280.59
2022-11-12T15:58:20.702Z,99280.66
2022-11-12T16:03:41.577Z,99271.75
2022-11-12T16:09:02.662Z,99279.97
2022-11-12T16:14:25.114Z,99283.09
2022-11-12T16:19:46.530Z,99289.34
2022-11-12T16:25:08.091Z,99289.28
2022-11-12T16:30:33.501Z,99281.56
2022-11-12T16:35:54.296Z,99286.25
2022-11-12T16:41:15.904Z,99274.28
2022-11-12T16:46:42.031Z,99265.34
2022-11-12T16:52:04.736Z,99258.38
2022-11-12T16:57:26.568Z,99263.06
2022-11-12T17:02:53.031Z,99263.06
2022-11-12T17:08:14.813Z,99265.75
2022-11-12T17:13:38.696Z,99263.44
2022-11-12T17:19:01.730Z,99260.69
2022-11-12T17:24:25.504Z,99272.28
2022-11-12T17:29:46.484Z,99262.22
2022-11-12T17:35:07.892Z,99257.97
2022-11-12T17:40:28.968Z,99259.09
2022-11-12T17:45:54.339Z,99256.38
2022-11-12T17:51:17.968Z,99245.09
2022-11-12T17:56:38.707Z,99245.44
2022-11-12T18:02:00.069Z,99239.63
2022-11-12T18:07:20.777Z,99236.94
2022-11-12T18:12:46.984Z,99235.78
2022-11-12T18:18:08.096Z,99242.75
2022-11-12T18:23:29.312Z,99240.06
2022-11-12T18:29:00.598Z,99233.50
2022-11-12T18:34:24.053Z,99236.59
2022-11-12T18:39:45.459Z,99226.50
2022-11-12T18:45:07.342Z,99226.13
2022-11-12T18:50:28.341Z,99212.50
2022-11-12T18:55:49.236Z,99214.78
2022-11-12T19:01:16.858Z,99217.81
2022-11-12T19:06:38.280Z,99214.41
2022-11-12T19:11:59.255Z,99218.31
2022-11-12T19:17:20.101Z,99210.16
2022-11-12T19:22:41.275Z,99210.88
2022-11-12T19:28:02.348Z,99208.50
2022-11-12T19:33:23.941Z,99209.31
2022-11-12T19:38:45.148Z,99215.47
2022-11-12T19:44:06.391Z,99203.84
2022-11-12T19:49:27.487Z,99191.06
2022-11-12T19:54:48.235Z,99194.53
2022-11-12T20:00:10.847Z,99192.25
2022-11-12T20:05:31.982Z,99196.19
2022-11-12T20:10:55.813Z,99188.03
2022-11-12T20:16:23.843Z,99189.16
2022-11-12T20:21:46.319Z,99190.75
2022-11-12T20:27:07.957Z,99182.66
2022-11-12T20:32:29.097Z,99176.81
2022-11-12T20:37:50.199Z,99175.28
2022-11-12T20:43:11.362Z,99171.75
2022-11-12T20:48:32.442Z,99165.09
2022-11-12T20:53:59.405Z,99167.41
2022-11-12T20:59:21.021Z,99170.47
2022-11-12T21:04:41.891Z,99164.88
2022-11-12T21:10:03.380Z,99162.41
2022-11-12T21:15:24.450Z,99154.59
2022-11-12T21:20:46.614Z,99146.00
2022-11-12T21:26:16.011Z,99141.06
2022-11-12T21:31:37.339Z,99130.03
2022-11-12T21:36:59.177Z,99127.75
2022-11-12T21:42:20.059Z,99129.47
2022-11-12T21:47:40.863Z,99123.03
2022-11-12T21:53:01.791Z,99126.22
2022-11-12T21:58:22.874Z,99120.03
2022-11-12T22:03:48.503Z,99111.22
2022-11-12T22:09:09.354Z,99112.56
2022-11-12T22:14:30.165Z,99112.44
2022-11-12T22:19:50.869Z,99109.41
2022-11-12T22:25:11.930Z,99100.88
2022-11-12T22:30:33.022Z,99103.88
2022-11-12T22:35:54.049Z,99093.00
2022-11-12T22:41:18.200Z,99083.25
2022-11-12T22:46:39.175Z,99074.38
2022-11-12T22:52:00.299Z,99078.63
2022-11-12T22:57:21.237Z,99080.53
2022-11-12T23:02:47.345Z,99075.31
2022-11-12T23:08:08.917Z,99069.63
2022-11-12T23:13:29.922Z,99071.69
2022-11-12T23:18:52.622Z,99068.41
2022-11-12T23:24:13.564Z,99050.63
2022-11-12T23:29:34.737Z,99048.38
2022-11-12T23:34:55.913Z,99044.22
2022-11-12T23:40:17.272Z,99049.22
2022-11-12T23:45:38.438Z,99039.97
2022-11-12T23:51:08.176Z,99031.47
2022-11-12T23:56:29.529Z,99036.03
